Time;durP1;ratioP1;P1;durP2;ratioP2;P2;SDS_P1;SDS_P2;PMS_P1;PMS_P2;Temp;Humidity;BMP_temperature;BMP_pressure;BME280_temperature;BME280_humidity;BME280_pressure;Samples;Min_cycle;Max_cycle;Signal;HPM_P1;HPM_P2
2022/06/28 00:01:25;;;;;;;;;;;;;;;21.03;61.23;101301.94;1713952;81;28088;-56
2022/06/28 00:03:53;;;;;;;;;;;;;;;21.03;61.22;101306.55;1713218;81;25781;-56
2022/06/28 00:06:24;;;;;;;;;;;;;;;21.03;61.10;101301.94;1716340;81;25924;-55
2022/06/28 00:08:50;;;;;;;;;;;;;;;21.05;60.83;101299.87;1718830;82;25888;-56
2022/06/28 00:11:23;;;;;;;;;;;;;;;21.04;61.09;101297.30;1725012;81;25683;-53
2022/06/28 00:13:51;;;;;;;;;;;;;;;21.00;60.72;101298.21;1720981;82;28762;-56
2022/06/28 00:16:19;;;;;;;;;;;;;;;20.99;60.67;101296.52;1716035;82;25959;-54
2022/06/28 00:18:45;;;;;;;;;;;;;;;20.96;60.60;101287.34;1714222;82;25706;-55
2022/06/28 00:21:12;;;;;;;;;;;;;;;20.97;60.72;101284.08;1720500;82;25775;-55
2022/06/28 00:23:42;;;;;;;;;;;;;;;20.93;60.70;101276.25;1717452;82;25864;-56
2022/06/28 00:26:10;;;;;;;;;;;;;;;20.94;60.89;101273.84;1726646;82;27466;-56
2022/06/28 00:28:37;;;;;;;;;;;;;;;20.88;61.00;101275.16;1717854;82;25768;-55
2022/06/28 00:31:04;;;;;;;;;;;;;;;20.85;60.99;101283.20;1708795;82;25809;-55
2022/06/28 00:33:31;;;;;;;;;;;;;;;20.83;61.07;101287.17;1715170;82;25851;-56
2022/06/28 00:35:58;;;;;;;;;;;;;;;20.79;60.84;101290.31;1711477;82;25956;-55
2022/06/28 00:38:25;;;;;;;;;;;;;;;20.78;60.91;101294.08;1715611;82;27494;-55
2022/06/28 00:40:54;;;;;;;;;;;;;;;20.76;61.33;101292.05;1725373;81;25786;-56
2022/06/28 00:43:22;;;;;;;;;;;;;;;20.78;61.00;101295.95;1735086;81;25739;-55
2022/06/28 00:45:49;;;;;;;;;;;;;;;20.75;61.02;101292.25;1730563;81;25791;-55
2022/06/28 00:48:17;;;;;;;;;;;;;;;20.73;60.87;101286.95;1706758;82;25846;-56
2022/06/28 00:50:44;;;;;;;;;;;;;;;20.74;60.85;101289.19;1713273;82;27518;-56
2022/06/28 00:53:14;;;;;;;;;;;;;;;20.72;60.96;101285.22;1710638;81;25762;-56
2022/06/28 00:55:43;;;;;;;;;;;;;;;20.70;60.92;101281.86;1701259;82;25874;-53
2022/06/28 00:58:11;;;;;;;;;;;;;;;20.69;60.78;101284.26;1699346;82;25838;-56
2022/06/28 01:00:41;;;;;;;;;;;;;;;20.63;61.00;101280.90;1701003;82;25781;-53
2022/06/28 01:03:20;;;;;;;;;;;;;;;20.59;61.08;101277.70;1691594;83;28353;-56
2022/06/28 01:05:50;;;;;;;;;;;;;;;20.58;61.14;101282.84;1684491;83;25857;-55
2022/06/28 01:08:17;;;;;;;;;;;;;;;20.54;61.50;101282.91;1701074;82;25797;-56
2022/06/28 01:10:44;;;;;;;;;;;;;;;20.49;61.71;101283.47;1688084;83;26636;-55
2022/06/28 01:13:12;;;;;;;;;;;;;;;20.46;61.69;101283.01;1685359;83;26639;-56
2022/06/28 01:15:41;;;;;;;;;;;;;;;20.45;61.65;101284.04;1689096;83;27544;-56
2022/06/28 01:18:09;;;;;;;;;;;;;;;20.41;61.77;101290.91;1684263;83;25913;-56
2022/06/28 01:20:44;;;;;;;;;;;;;;;20.41;61.66;101297.73;1685667;83;25903;-56
2022/06/28 01:23:17;;;;;;;;;;;;;;;20.40;61.90;101296.91;1676537;83;26523;-55
2022/06/28 01:25:46;;;;;;;;;;;;;;;20.38;62.11;101290.77;1697164;83;25827;-55
2022/06/28 01:28:15;;;;;;;;;;;;;;;20.39;62.04;101285.64;1686322;83;27447;-56
2022/06/28 01:30:42;;;;;;;;;;;;;;;20.38;62.31;101287.20;1686184;83;25833;-56
2022/06/28 01:33:11;;;;;;;;;;;;;;;20.32;63.06;101290.17;1697532;82;25456;-55
2022/06/28 01:35:37;;;;;;;;;;;;;;;20.26;62.78;101288.20;1697253;82;25837;-54
2022/06/28 01:38:06;;;;;;;;;;;;;;;20.25;62.77;101292.80;1713531;82;25797;-55
2022/06/28 01:40:33;;;;;;;;;;;;;;;20.24;63.03;101289.73;1701551;82;28417;-55
2022/06/28 01:43:00;;;;;;;;;;;;;;;20.24;62.85;101291.09;1711464;81;25795;-55
2022/06/28 01:45:29;;;;;;;;;;;;;;;20.24;62.97;101288.36;1717149;82;25820;-54
2022/06/28 01:47:56;;;;;;;;;;;;;;;20.26;63.05;101289.03;1714858;82;25804;-55
2022/06/28 01:50:27;;;;;;;;;;;;;;;20.29;63.11;101295.50;1711387;82;25785;-55
2022/06/28 01:52:54;;;;;;;;;;;;;;;20.32;63.00;101295.10;1722920;82;28324;-55
2022/06/28 01:55:39;;;;;;;;;;;;;;;20.36;63.16;101296.94;1707316;82;25873;-55
2022/06/28 01:58:08;;;;;;;;;;;;;;;20.38;63.04;101296.23;1708509;82;25880;-55
2022/06/28 02:00:37;;;;;;;;;;;;;;;20.41;62.97;101295.88;1718225;80;25773;-55
2022/06/28 02:03:04;;;;;;;;;;;;;;;20.41;63.66;101297.23;1715614;80;25972;-55
2022/06/28 02:05:45;;;;;;;;;;;;;;;20.29;64.33;101292.77;1716015;81;27500;-55
2022/06/28 02:08:12;;;;;;;;;;;;;;;20.20;63.90;101293.02;1713791;81;25866;-55
2022/06/28 02:10:46;;;;;;;;;;;;;;;20.17;63.96;101297.81;1712988;81;25836;-54
2022/06/28 02:13:13;;;;;;;;;;;;;;;20.17;63.86;101297.81;1719436;81;25791;-54
2022/06/28 02:15:39;;;;;;;;;;;;;;;20.18;63.90;101301.42;1715906;80;25880;-55
2022/06/28 02:18:07;;;;;;;;;;;;;;;20.19;63.91;101303.12;1715057;81;27471;-55
2022/06/28 02:20:34;;;;;;;;;;;;;;;20.21;63.91;101302.92;1708350;81;25815;-55
2022/06/28 02:23:01;;;;;;;;;;;;;;;20.24;63.92;101308.02;1716937;81;25735;-55
2022/06/28 02:25:29;;;;;;;;;;;;;;;20.25;63.91;101309.19;1714255;81;25985;-55
2022/06/28 02:27:55;;;;;;;;;;;;;;;20.28;63.79;101312.05;1718837;81;25711;-54
2022/06/28 02:30:22;;;;;;;;;;;;;;;20.28;63.66;101304.72;1721885;80;27510;-54
2022/06/28 02:32:48;;;;;;;;;;;;;;;20.30;63.50;101305.39;1719241;82;27340;-55
2022/06/28 02:40:47;;;;;;;;;;;;;;;20.37;64.46;101303.27;1745730;80;25865;-54
2022/06/28 02:43:13;;;;;;;;;;;;;;;20.29;63.68;101301.46;1758070;80;27653;-55
2022/06/28 02:45:42;;;;;;;;;;;;;;;20.29;63.88;101300.09;1740332;81;25722;-55
2022/06/28 02:48:09;;;;;;;;;;;;;;;20.31;63.92;101300.77;1698326;82;25808;-55
2022/06/28 02:50:36;;;;;;;;;;;;;;;20.29;63.56;101305.06;1703399;83;25939;-55
2022/06/28 02:53:03;;;;;;;;;;;;;;;20.26;64.10;101312.25;1694708;83;26548;-54
2022/06/28 02:55:29;;;;;;;;;;;;;;;20.23;64.11;101304.95;1699969;82;28357;-55
2022/06/28 02:57:56;;;;;;;;;;;;;;;20.22;64.22;101309.55;1706029;82;25860;-55
2022/06/28 03:00:23;;;;;;;;;;;;;;;20.22;64.32;101301.36;1725143;81;25834;-55
2022/06/28 03:02:50;;;;;;;;;;;;;;;20.23;64.53;101300.33;1722772;81;26466;-54
2022/06/28 03:05:19;;;;;;;;;;;;;;;20.23;64.38;101304.42;1720006;81;25859;-55
2022/06/28 03:07:46;;;;;;;;;;;;;;;20.24;64.60;101310.75;1720222;81;27459;-54
2022/06/28 03:10:15;;;;;;;;;;;;;;;20.29;64.41;101304.19;1724964;80;25753;-55
2022/06/28 03:12:41;;;;;;;;;;;;;;;20.32;64.49;101308.76;1717381;82;25856;-53
2022/06/28 03:15:11;;;;;;;;;;;;;;;20.37;64.27;101311.46;1715069;81;25811;-55
2022/06/28 03:17:38;;;;;;;;;;;;;;;20.40;64.09;101308.33;1720996;81;25865;-55
2022/06/28 03:20:06;;;;;;;;;;;;;;;20.43;64.43;101303.88;1722421;81;27479;-55
2022/06/28 03:22:32;;;;;;;;;;;;;;;20.48;64.43;101296.80;1731528;81;25988;-54
2022/06/28 03:24:59;;;;;;;;;;;;;;;20.55;64.31;101300.14;1727016;81;25712;-55
2022/06/28 03:27:26;;;;;;;;;;;;;;;20.62;64.02;101295.60;1716075;82;25842;-54
2022/06/28 03:29:54;;;;;;;;;;;;;;;20.72;63.90;101304.89;1721784;80;25795;-55
2022/06/28 03:32:22;;;;;;;;;;;;;;;20.78;63.92;101297.31;1718926;81;27470;-55
2022/06/28 03:34:49;;;;;;;;;;;;;;;20.88;63.75;101295.13;1716312;81;25889;-55
2022/06/28 03:37:18;;;;;;;;;;;;;;;20.96;63.51;101303.76;1731523;81;26514;-55
2022/06/28 03:39:46;;;;;;;;;;;;;;;21.05;63.31;101306.70;1716669;81;25881;-55
2022/06/28 03:42:14;;;;;;;;;;;;;;;21.18;63.27;101303.27;1757007;80;25890;-56
2022/06/28 03:44:42;;;;;;;;;;;;;;;21.26;62.89;101304.52;1741353;81;27448;-54
2022/06/28 03:47:08;;;;;;;;;;;;;;;21.36;62.58;101311.55;1720954;80;26456;-53
2022/06/28 03:49:40;;;;;;;;;;;;;;;21.40;62.42;101304.63;1697539;83;25825;-53
2022/06/28 03:52:09;;;;;;;;;;;;;;;21.46;62.36;101308.48;1692765;83;26751;-55
2022/06/28 03:54:57;;;;;;;;;;;;;;;21.43;62.38;101316.57;1695113;82;25888;-55
2022/06/28 03:57:26;;;;;;;;;;;;;;;21.39;62.58;101312.01;1695659;82;28268;-55
2022/06/28 03:59:52;;;;;;;;;;;;;;;21.41;62.56;101315.91;1718396;81;25865;-54
2022/06/28 04:02:21;;;;;;;;;;;;;;;21.50;62.36;101323.48;1726558;80;25824;-55
2022/06/28 04:04:48;;;;;;;;;;;;;;;21.50;62.20;101316.64;1724107;82;26534;-55
2022/06/28 04:07:14;;;;;;;;;;;;;;;21.52;62.14;101314.03;1740444;81;26628;-55
2022/06/28 04:09:42;;;;;;;;;;;;;;;21.54;62.13;101320.16;1724817;81;27605;-55
2022/06/28 04:12:09;;;;;;;;;;;;;;;21.55;61.99;101313.64;1730278;81;25979;-55
2022/06/28 04:14:37;;;;;;;;;;;;;;;21.56;61.89;101315.31;1727311;80;25820;-56
2022/06/28 04:17:04;;;;;;;;;;;;;;;21.59;61.91;101311.39;1733067;81;25912;-55
2022/06/28 04:19:41;;;;;;;;;;;;;;;21.67;61.70;101318.10;1720154;81;25934;-55
2022/06/28 04:22:07;;;;;;;;;;;;;;;21.61;61.72;101308.45;1722086;81;28293;-55
2022/06/28 04:24:34;;;;;;;;;;;;;;;21.61;61.63;101313.92;1729500;81;25852;-55
2022/06/28 04:27:06;;;;;;;;;;;;;;;21.62;61.61;101315.09;1720904;81;25834;-56
2022/06/28 04:29:34;;;;;;;;;;;;;;;21.67;61.56;101313.12;1733079;81;25820;-55
2022/06/28 04:32:01;;;;;;;;;;;;;;;21.70;61.44;101311.37;1706623;82;25802;-55
2022/06/28 04:34:29;;;;;;;;;;;;;;;21.79;61.37;101307.45;1727856;82;27427;-54
2022/06/28 04:36:58;;;;;;;;;;;;;;;21.91;61.29;101298.70;1732127;80;25960;-55
2022/06/28 04:39:25;;;;;;;;;;;;;;;22.03;61.08;101301.20;1723247;81;25807;-55
2022/06/28 04:42:08;;;;;;;;;;;;;;;22.09;60.82;101299.56;1680141;83;25855;-55
2022/06/28 04:44:38;;;;;;;;;;;;;;;22.08;60.66;101302.84;1692040;82;27470;-56
2022/06/28 04:47:05;;;;;;;;;;;;;;;22.05;60.78;101307.34;1725114;80;27568;-54
2022/06/28 04:49:32;;;;;;;;;;;;;;;22.06;60.83;101307.66;1716251;82;25908;-55
2022/06/28 04:51:59;;;;;;;;;;;;;;;22.12;60.88;101317.81;1711250;83;25671;-55
2022/06/28 04:54:30;;;;;;;;;;;;;;;22.19;60.51;101323.34;1707419;83;25861;-55
2022/06/28 04:56:58;;;;;;;;;;;;;;;22.20;60.34;101314.92;1697751;82;25908;-55
2022/06/28 04:59:26;;;;;;;;;;;;;;;22.29;60.01;101318.88;1717706;80;27512;-55
2022/06/28 05:01:53;;;;;;;;;;;;;;;22.34;60.03;101324.61;1730310;80;25700;-55
2022/06/28 05:04:20;;;;;;;;;;;;;;;22.39;59.87;101322.64;1715145;82;26524;-55
2022/06/28 05:06:49;;;;;;;;;;;;;;;22.40;59.82;101332.05;1709622;82;26417;-54
2022/06/28 05:09:16;;;;;;;;;;;;;;;22.46;59.73;101333.98;1715802;82;25779;-55
2022/06/28 05:11:43;;;;;;;;;;;;;;;22.57;59.47;101331.72;1730449;81;27499;-55
2022/06/28 05:14:11;;;;;;;;;;;;;;;22.63;59.26;101324.08;1738983;81;25989;-55
2022/06/28 05:16:38;;;;;;;;;;;;;;;22.77;58.73;101329.94;1737632;81;25728;-54
2022/06/28 05:19:06;;;;;;;;;;;;;;;22.86;58.49;101328.39;1727007;81;25919;-56
2022/06/28 05:21:35;;;;;;;;;;;;;;;22.99;58.19;101322.97;1729420;82;26228;-55
2022/06/28 05:24:01;;;;;;;;;;;;;;;23.11;57.76;101323.22;1723648;82;27771;-56
2022/06/28 05:26:30;;;;;;;;;;;;;;;23.18;57.29;101319.99;1718458;82;25762;-54
2022/06/28 05:29:01;;;;;;;;;;;;;;;23.26;57.20;101321.71;1729003;81;25765;-55
2022/06/28 05:31:28;;;;;;;;;;;;;;;23.32;56.77;101323.62;1728529;81;25787;-55
2022/06/28 05:33:55;;;;;;;;;;;;;;;23.39;57.04;101312.66;1723454;81;25730;-56
2022/06/28 05:36:22;;;;;;;;;;;;;;;23.43;56.85;101309.80;1733495;81;27494;-55
2022/06/28 05:38:49;;;;;;;;;;;;;;;23.44;56.72;101306.00;1720689;82;25445;-55
2022/06/28 05:41:15;;;;;;;;;;;;;;;23.48;56.67;101310.03;1693741;80;25802;-56
2022/06/28 05:43:42;;;;;;;;;;;;;;;23.51;56.49;101310.13;1686512;82;25881;-56
2022/06/28 05:46:09;;;;;;;;;;;;;;;23.51;56.32;101308.77;1702066;81;25869;-57
2022/06/28 05:48:36;;;;;;;;;;;;;;;23.55;56.41;101304.53;1714827;80;27494;-55
2022/06/28 05:51:03;;;;;;;;;;;;;;;23.61;56.32;101305.08;1719346;81;25905;-56
2022/06/28 05:53:30;;;;;;;;;;;;;;;23.64;55.87;101313.42;1717659;81;25849;-56
2022/06/28 05:55:58;;;;;;;;;;;;;;;23.61;55.51;101314.69;1719940;81;25870;-56
2022/06/28 05:58:25;;;;;;;;;;;;;;;23.66;55.63;101309.94;1697848;82;25950;-56
2022/06/28 06:00:51;;;;;;;;;;;;;;;23.68;55.62;101311.42;1730816;81;27557;-56
2022/06/28 06:03:18;;;;;;;;;;;;;;;23.67;55.50;101312.98;1731654;81;25844;-56
2022/06/28 06:05:45;;;;;;;;;;;;;;;23.70;55.63;101307.94;1734284;80;25765;-55
2022/06/28 06:08:12;;;;;;;;;;;;;;;23.73;55.49;101308.87;1728592;81;25815;-56
2022/06/28 06:10:39;;;;;;;;;;;;;;;23.77;55.59;101309.29;1723099;81;25840;-55
2022/06/28 06:13:06;;;;;;;;;;;;;;;23.81;55.53;101305.59;1731212;81;29754;-55
2022/06/28 06:15:32;;;;;;;;;;;;;;;23.87;55.50;101306.14;1718780;81;25707;-56
2022/06/28 06:17:59;;;;;;;;;;;;;;;23.98;55.18;101303.30;1718678;81;25675;-55
2022/06/28 06:20:26;;;;;;;;;;;;;;;24.07;54.51;101307.52;1702677;83;25828;-55
2022/06/28 06:22:52;;;;;;;;;;;;;;;24.14;54.15;101304.23;1694967;82;26395;-55
2022/06/28 06:25:20;;;;;;;;;;;;;;;24.22;54.37;101308.13;1699548;83;27438;-55
2022/06/28 06:27:48;;;;;;;;;;;;;;;24.35;53.95;101308.63;1711296;81;25852;-55
2022/06/28 06:30:15;;;;;;;;;;;;;;;24.43;53.39;101308.09;1721156;81;25845;-56
2022/06/28 06:32:43;;;;;;;;;;;;;;;24.49;53.49;101308.60;1737156;80;25804;-55
2022/06/28 06:35:28;;;;;;;;;;;;;;;24.53;53.61;101301.08;1717609;81;25880;-55
2022/06/28 06:38:00;;;;;;;;;;;;;;;24.61;53.63;101301.89;1711923;82;27570;-56
2022/06/28 06:40:24;;;;;;;;;;;;;;;24.69;53.39;101306.67;1736677;81;25869;-55
2022/06/28 06:42:51;;;;;;;;;;;;;;;24.78;52.89;101310.00;1714869;82;25809;-55
2022/06/28 06:45:20;;;;;;;;;;;;;;;24.84;52.03;101299.49;1719143;82;25814;-55
2022/06/28 06:47:46;;;;;;;;;;;;;;;24.91;50.68;101298.09;1700408;82;25925;-56
2022/06/28 06:50:14;;;;;;;;;;;;;;;24.99;50.77;101300.59;1721568;82;29626;-55
2022/06/28 06:52:41;;;;;;;;;;;;;;;25.06;50.37;101293.67;1713812;82;25765;-55
2022/06/28 06:55:09;;;;;;;;;;;;;;;25.15;50.13;101296.48;1716552;82;25883;-55
2022/06/28 06:57:39;;;;;;;;;;;;;;;25.24;49.40;101296.22;1742830;81;25795;-55
2022/06/28 07:00:09;;;;;;;;;;;;;;;25.33;48.65;101294.89;1705055;83;27391;-56
2022/06/28 07:02:40;;;;;;;;;;;;;;;25.44;48.49;101298.86;1704766;83;27675;-56
2022/06/28 07:05:08;;;;;;;;;;;;;;;25.55;48.92;101286.30;1701774;83;25420;-55
2022/06/28 07:07:35;;;;;;;;;;;;;;;25.63;48.04;101283.27;1663074;82;25884;-55
2022/06/28 07:10:03;;;;;;;;;;;;;;;25.72;47.96;101286.06;1718364;80;25793;-55
2022/06/28 07:12:31;;;;;;;;;;;;;;;25.83;46.47;101282.23;1714750;82;25458;-55
2022/06/28 07:14:57;;;;;;;;;;;;;;;25.94;46.85;101283.73;1710503;82;29678;-55
2022/06/28 07:17:25;;;;;;;;;;;;;;;26.06;46.88;101281.59;1715084;80;25852;-56
2022/06/28 07:19:52;;;;;;;;;;;;;;;26.20;44.29;101282.33;1728445;82;25773;-55
2022/06/28 07:22:19;;;;;;;;;;;;;;;26.33;45.51;101286.86;1743401;80;25793;-55
2022/06/28 07:24:49;;;;;;;;;;;;;;;26.46;43.15;101282.58;1734660;81;26738;-54
2022/06/28 07:27:16;;;;;;;;;;;;;;;26.58;42.78;101283.20;1724410;80;27481;-54
2022/06/28 07:29:43;;;;;;;;;;;;;;;26.73;42.83;101280.87;1717960;82;25879;-55
2022/06/28 07:32:10;;;;;;;;;;;;;;;26.85;42.50;101286.48;1727374;82;25864;-55
2022/06/28 07:34:37;;;;;;;;;;;;;;;26.98;41.03;101282.69;1727585;82;25949;-54
2022/06/28 07:37:04;;;;;;;;;;;;;;;27.10;41.40;101293.25;1726815;82;25837;-55
2022/06/28 07:39:31;;;;;;;;;;;;;;;27.24;39.40;101286.14;1724560;80;27517;-56
2022/06/28 07:42:16;;;;;;;;;;;;;;;27.33;39.35;101290.25;1710810;81;25768;-55
2022/06/28 07:45:03;;;;;;;;;;;;;;;27.41;39.66;101286.32;1657578;85;25908;-56
2022/06/28 07:47:31;;;;;;;;;;;;;;;27.51;40.59;101287.14;1656695;83;25916;-55
2022/06/28 07:52:45;;;;;;;;;;;;;;;27.62;40.14;101280.25;1720939;82;27675;-55
2022/06/28 07:55:13;;;;;;;;;;;;;;;27.74;40.46;101281.67;1709607;81;25806;-55
2022/06/28 07:57:59;;;;;;;;;;;;;;;27.84;39.76;101279.67;1723143;81;25794;-55
2022/06/28 08:00:26;;;;;;;;;;;;;;;27.93;39.57;101274.09;1729549;80;25896;-56
2022/06/28 08:02:54;;;;;;;;;;;;;;;28.07;38.69;101269.19;1717878;81;25796;-56
2022/06/28 08:05:22;;;;;;;;;;;;;;;28.16;38.58;101261.34;1727336;81;27488;-56
2022/06/28 08:07:49;;;;;;;;;;;;;;;28.28;37.32;101261.36;1718130;81;25813;-56
2022/06/28 08:10:16;;;;;;;;;;;;;;;28.42;37.39;101269.67;1711935;81;25769;-55
2022/06/28 08:12:44;;;;;;;;;;;;;;;28.59;35.17;101263.37;1728401;81;27980;-55
2022/06/28 08:15:12;;;;;;;;;;;;;;;28.63;36.90;101260.95;1724832;81;25900;-56
2022/06/28 08:17:38;;;;;;;;;;;;;;;28.73;35.46;101267.55;1721266;81;27439;-55
2022/06/28 08:20:06;;;;;;;;;;;;;;;28.81;35.14;101253.87;1699217;83;25773;-56
2022/06/28 08:22:35;;;;;;;;;;;;;;;28.94;35.54;101249.97;1697347;81;25925;-56
2022/06/28 08:25:02;;;;;;;;;;;;;;;29.09;35.92;101249.97;1684228;83;25846;-55
2022/06/28 08:27:29;;;;;;;;;;;;;;;29.24;34.45;101243.84;1719344;81;25613;-55
2022/06/28 08:29:55;;;;;;;;;;;;;;;29.38;33.34;101243.86;1697838;83;27472;-56
2022/06/28 08:32:23;;;;;;;;;;;;;;;29.51;33.08;101239.34;1694769;83;25901;-55
2022/06/28 08:34:50;;;;;;;;;;;;;;;29.59;32.67;101242.78;1687454;83;25501;-56
2022/06/28 08:37:18;;;;;;;;;;;;;;;29.69;32.94;101247.11;1698648;82;26654;-55
2022/06/28 08:39:45;;;;;;;;;;;;;;;29.78;32.18;101240.60;1729783;80;26132;-56
2022/06/28 08:42:12;;;;;;;;;;;;;;;29.89;31.65;101233.27;1743294;80;27548;-56
2022/06/28 08:44:40;;;;;;;;;;;;;;;30.05;32.42;101234.36;1731408;82;25776;-56
2022/06/28 08:47:08;;;;;;;;;;;;;;;30.16;32.78;101238.97;1712619;82;25813;-55
2022/06/28 08:49:56;;;;;;;;;;;;;;;30.32;31.25;101232.22;1719013;82;26796;-54
2022/06/28 08:52:24;;;;;;;;;;;;;;;30.43;29.62;101231.26;1716867;81;25750;-55
2022/06/28 08:54:51;;;;;;;;;;;;;;;30.57;31.51;101227.00;1713782;82;27573;-55
2022/06/28 08:57:22;;;;;;;;;;;;;;;30.78;26.68;101226.38;1723716;82;25823;-55
2022/06/28 08:59:49;;;;;;;;;;;;;;;30.80;29.24;101225.58;1716756;82;26301;-56
2022/06/28 09:02:16;;;;;;;;;;;;;;;31.02;29.05;101231.08;1724740;81;26433;-55
2022/06/28 09:04:46;;;;;;;;;;;;;;;31.17;26.71;101229.86;1719449;81;25442;-56
2022/06/28 09:07:12;;;;;;;;;;;;;;;31.28;27.91;101228.56;1710160;82;27522;-56
2022/06/28 09:09:39;;;;;;;;;;;;;;;31.38;29.00;101228.66;1702572;83;25760;-56
2022/06/28 09:12:08;;;;;;;;;;;;;;;31.54;28.32;101211.55;1701376;83;25846;-56
2022/06/28 09:14:34;;;;;;;;;;;;;;;31.69;27.81;101216.41;1699013;82;25834;-55
2022/06/28 09:17:23;;;;;;;;;;;;;;;31.88;27.18;101216.80;1704705;83;25843;-55
2022/06/28 09:19:59;;;;;;;;;;;;;;;31.99;26.45;101209.34;1704488;82;27718;-55
2022/06/28 09:22:35;;;;;;;;;;;;;;;32.05;28.31;101217.98;1701377;82;25858;-56
2022/06/28 09:25:05;;;;;;;;;;;;;;;32.30;26.73;101208.12;1710363;83;25919;-55
2022/06/28 09:27:35;;;;;;;;;;;;;;;32.49;26.56;101203.46;1698730;82;25942;-56
2022/06/28 09:30:04;;;;;;;;;;;;;;;32.49;25.79;101207.07;1699996;82;25808;-55
2022/06/28 09:32:33;;;;;;;;;;;;;;;32.56;26.59;101194.28;1711490;83;27581;-56
2022/06/28 09:35:02;;;;;;;;;;;;;;;32.80;26.01;101192.41;1702652;83;25478;-56
2022/06/28 09:37:42;;;;;;;;;;;;;;;32.99;24.41;101187.97;1708232;83;25842;-55
2022/06/28 09:40:15;;;;;;;;;;;;;;;33.15;24.31;101186.58;1700633;82;25875;-56
2022/06/28 09:42:43;;;;;;;;;;;;;;;33.35;24.87;101188.00;1692393;82;25893;-55
2022/06/28 09:45:12;;;;;;;;;;;;;;;33.66;25.53;101181.53;1739978;80;27470;-56
2022/06/28 09:47:44;;;;;;;;;;;;;;;34.00;25.83;101183.14;1725865;81;25828;-55
2022/06/28 09:50:12;;;;;;;;;;;;;;;34.33;25.09;101182.72;1726265;81;25739;-56
2022/06/28 09:52:42;;;;;;;;;;;;;;;34.56;23.39;101178.41;1724568;81;26577;-56
2022/06/28 09:55:09;;;;;;;;;;;;;;;34.67;22.48;101181.98;1722931;81;25926;-55
2022/06/28 09:57:36;;;;;;;;;;;;;;;34.69;22.59;101183.08;1714163;82;28248;-55
2022/06/28 10:00:04;;;;;;;;;;;;;;;34.85;23.87;101176.83;1716233;81;25718;-56
2022/06/28 10:02:33;;;;;;;;;;;;;;;35.15;23.19;101172.13;1726323;81;26017;-56
2022/06/28 10:05:01;;;;;;;;;;;;;;;35.50;21.81;101174.36;1721904;81;25913;-55
2022/06/28 10:07:31;;;;;;;;;;;;;;;35.77;22.96;101176.57;1725878;80;26022;-55
2022/06/28 10:09:58;;;;;;;;;;;;;;;36.12;21.88;101174.49;1733262;82;27894;-56
2022/06/28 10:15:10;;;;;;;;;;;;;;;35.98;21.66;101177.19;1711212;82;25477;-56
2022/06/28 10:17:53;;;;;;;;;;;;;;;36.25;20.94;101170.70;1719129;81;26365;-56
2022/06/28 10:20:32;;;;;;;;;;;;;;;36.47;20.05;101163.95;1732475;81;25710;-56
2022/06/28 10:23:33;;;;;;;;;;;;;;;36.52;19.85;101168.65;1718752;82;28245;-56
2022/06/28 10:26:16;;;;;;;;;;;;;;;36.50;20.91;101161.11;1729805;81;25880;-56
2022/06/28 10:28:49;;;;;;;;;;;;;;;37.12;19.44;101153.97;1726123;81;25880;-56
2022/06/28 10:31:24;;;;;;;;;;;;;;;37.66;20.17;101156.37;1719500;82;25803;-56
2022/06/28 10:33:57;;;;;;;;;;;;;;;38.17;19.75;101151.69;1706737;82;25873;-56
2022/06/28 10:36:26;;;;;;;;;;;;;;;38.74;19.21;101146.73;1715648;82;27516;-56
2022/06/28 10:39:08;;;;;;;;;;;;;;;39.22;17.69;101144.69;1731312;81;25823;-56
2022/06/28 10:41:44;;;;;;;;;;;;;;;39.42;17.19;101136.84;1721657;82;25824;-56
2022/06/28 10:44:15;;;;;;;;;;;;;;;39.69;17.25;101141.44;1731914;81;25832;-56
2022/06/28 10:46:44;;;;;;;;;;;;;;;39.60;16.61;101138.58;1734873;81;25955;-57
2022/06/28 10:49:12;;;;;;;;;;;;;;;39.29;17.36;101136.64;1720348;81;30006;-56
2022/06/28 10:52:02;;;;;;;;;;;;;;;39.57;18.20;101128.55;1708616;82;25714;-57
2022/06/28 10:54:28;;;;;;;;;;;;;;;39.94;17.99;101129.78;1697623;83;25881;-57
2022/06/28 10:56:56;;;;;;;;;;;;;;;40.21;17.01;101128.08;1692104;81;25829;-56
2022/06/28 10:59:34;;;;;;;;;;;;;;;40.04;15.90;101135.08;1698846;82;25796;-56
2022/06/28 11:02:01;;;;;;;;;;;;;;;40.06;17.58;101130.80;1708637;83;27565;-56
2022/06/28 11:04:29;;;;;;;;;;;;;;;40.47;17.65;101132.08;1698513;83;25503;-56
2022/06/28 11:06:58;;;;;;;;;;;;;;;40.95;17.12;101128.81;1696038;81;25792;-56
2022/06/28 11:09:47;;;;;;;;;;;;;;;41.23;14.80;101122.22;1690337;82;26765;-57
2022/06/28 11:12:35;;;;;;;;;;;;;;;41.13;15.36;101114.12;1699556;81;25806;-56
2022/06/28 11:15:08;;;;;;;;;;;;;;;41.25;15.06;101104.34;1692430;83;27693;-56
2022/06/28 11:17:40;;;;;;;;;;;;;;;40.96;15.75;101123.41;1702356;81;25836;-56
2022/06/28 11:20:14;;;;;;;;;;;;;;;41.05;15.08;101117.80;1699405;82;37099;-57
2022/06/28 11:22:47;;;;;;;;;;;;;;;41.24;15.02;101115.98;1696755;82;25969;-57
2022/06/28 11:25:20;;;;;;;;;;;;;;;41.54;14.61;101118.87;1702868;82;25692;-56
2022/06/28 11:27:53;;;;;;;;;;;;;;;41.71;14.40;101115.11;1701549;81;27502;-56
2022/06/28 11:30:23;;;;;;;;;;;;;;;41.97;14.98;101107.92;1695657;82;25789;-56
2022/06/28 11:32:50;;;;;;;;;;;;;;;42.21;14.10;101099.34;1698667;82;25828;-56
2022/06/28 11:35:23;;;;;;;;;;;;;;;42.08;13.77;101108.34;1696912;83;26670;-56
2022/06/28 11:38:05;;;;;;;;;;;;;;;42.05;13.41;101110.42;1701675;82;25828;-57
2022/06/28 11:40:45;;;;;;;;;;;;;;;42.43;14.45;101109.48;1709705;81;28343;-56
2022/06/28 11:43:14;;;;;;;;;;;;;;;43.19;13.76;101112.23;1703460;83;25911;-56
2022/06/28 11:45:47;;;;;;;;;;;;;;;43.35;12.51;101112.38;1693593;83;25909;-56
2022/06/28 11:48:16;;;;;;;;;;;;;;;43.14;12.28;101106.78;1751184;80;26647;-60
2022/06/28 11:50:49;;;;;;;;;;;;;;;43.21;12.20;101103.41;1753038;80;25738;-56
2022/06/28 11:53:16;;;;;;;;;;;;;;;43.47;12.12;101104.47;1690370;83;27669;-56
2022/06/28 11:55:46;;;;;;;;;;;;;;;43.67;12.25;101100.48;1689632;83;25767;-57
2022/06/28 11:58:33;;;;;;;;;;;;;;;43.86;11.46;101097.86;1703034;83;25886;-56
2022/06/28 12:01:20;;;;;;;;;;;;;;;43.66;11.96;101087.50;1712187;82;25868;-56
2022/06/28 12:03:50;;;;;;;;;;;;;;;43.91;12.03;101085.45;1703283;81;25787;-56
2022/06/28 12:06:29;;;;;;;;;;;;;;;44.30;12.65;101087.84;1706134;81;27659;-55
2022/06/28 12:08:59;;;;;;;;;;;;;;;44.43;11.59;101088.03;1699181;83;25930;-56
2022/06/28 12:11:40;;;;;;;;;;;;;;;44.01;12.08;101082.73;1709612;81;25685;-55
2022/06/28 12:14:16;;;;;;;;;;;;;;;44.11;11.86;101075.75;1708847;83;25811;-55
2022/06/28 12:16:45;;;;;;;;;;;;;;;44.05;12.33;101070.32;1698504;83;27278;-55
2022/06/28 12:19:15;;;;;;;;;;;;;;;44.63;12.60;101069.73;1708272;82;27569;-56
2022/06/28 12:22:02;;;;;;;;;;;;;;;45.46;12.12;101074.16;1696761;83;25711;-56
2022/06/28 12:24:54;;;;;;;;;;;;;;;45.88;11.75;101067.59;1702926;82;25870;-56
2022/06/28 12:27:31;;;;;;;;;;;;;;;45.97;11.01;101058.29;1692580;83;25898;-56
2022/06/28 12:29:59;;;;;;;;;;;;;;;45.77;11.56;101051.74;1699095;82;25765;-57
2022/06/28 12:32:28;;;;;;;;;;;;;;;45.47;11.82;101053.09;1697288;82;28532;-56
2022/06/28 12:35:03;;;;;;;;;;;;;;;45.35;11.94;101050.34;1696401;83;25736;-56
2022/06/28 12:37:31;;;;;;;;;;;;;;;45.66;11.57;101053.52;1707931;82;25862;-57
2022/06/28 12:39:58;;;;;;;;;;;;;;;45.95;11.93;101050.70;1696891;83;26484;-57
2022/06/28 12:42:32;;;;;;;;;;;;;;;46.21;11.49;101035.03;1707787;81;26168;-57
2022/06/28 12:45:02;;;;;;;;;;;;;;;46.01;11.14;101031.36;1731359;80;27553;-57
2022/06/28 12:47:33;;;;;;;;;;;;;;;45.56;11.27;101026.48;1758390;80;25766;-56
2022/06/28 12:50:04;;;;;;;;;;;;;;;45.33;11.74;101026.59;1761052;80;25890;-56
2022/06/28 12:52:31;;;;;;;;;;;;;;;45.38;12.15;101022.64;1708445;81;25816;-56
2022/06/28 12:54:58;;;;;;;;;;;;;;;45.69;12.06;101020.11;1702305;83;26051;-56
2022/06/28 12:57:27;;;;;;;;;;;;;;;46.07;10.96;101014.25;1692014;82;27501;-56
2022/06/28 12:59:54;;;;;;;;;;;;;;;45.52;11.45;101019.31;1701016;82;25655;-56